sensor_id;sensor_type;location;lat;lon;timestamp;pressure;altitude;pressure_sealevel;temperature;humidity
23574;BME280;11965;53.640;10.050;2023-04-07T00:00:28;101655.00;;;3.78;65.36
23574;BME280;11965;53.640;10.050;2023-04-07T00:02:55;101651.97;;;3.81;63.85
23574;BME280;11965;53.640;10.050;2023-04-07T00:05:24;101649.88;;;3.85;64.51
23574;BME280;11965;53.640;10.050;2023-04-07T00:07:53;101650.38;;;3.79;64.21
23574;BME280;11965;53.640;10.050;2023-04-07T00:10:20;101652.47;;;3.86;64.19
23574;BME280;11965;53.640;10.050;2023-04-07T00:12:47;101652.66;;;3.73;64.25
23574;BME280;11965;53.640;10.050;2023-04-07T00:15:14;101646.00;;;3.76;65.10
23574;BME280;11965;53.640;10.050;2023-04-07T00:17:41;101648.53;;;3.68;65.02
23574;BME280;11965;53.640;10.050;2023-04-07T00:20:08;101654.56;;;3.62;64.28
23574;BME280;11965;53.640;10.050;2023-04-07T00:22:36;101659.97;;;3.52;65.13
23574;BME280;11965;53.640;10.050;2023-04-07T00:25:04;101661.19;;;3.48;66.47
23574;BME280;11965;53.640;10.050;2023-04-07T00:27:31;101661.09;;;3.49;65.81
23574;BME280;11965;53.640;10.050;2023-04-07T00:29:58;101659.59;;;3.45;67.10
23574;BME280;11965;53.640;10.050;2023-04-07T00:32:25;101656.25;;;3.42;68.35
23574;BME280;11965;53.640;10.050;2023-04-07T00:34:52;101658.88;;;3.32;67.47
23574;BME280;11965;53.640;10.050;2023-04-07T00:37:18;101653.53;;;3.30;68.86
23574;BME280;11965;53.640;10.050;2023-04-07T00:39:47;101658.88;;;3.32;67.50
23574;BME280;11965;53.640;10.050;2023-04-07T00:42:15;101658.22;;;3.40;66.97
23574;BME280;11965;53.640;10.050;2023-04-07T00:44:42;101654.63;;;3.39;65.20
23574;BME280;11965;53.640;10.050;2023-04-07T00:47:09;101661.09;;;3.49;65.62
23574;BME280;11965;53.640;10.050;2023-04-07T00:49:37;101656.34;;;3.40;66.10
23574;BME280;11965;53.640;10.050;2023-04-07T00:52:04;101658.13;;;3.41;65.13
23574;BME280;11965;53.640;10.050;2023-04-07T00:54:31;101655.34;;;3.52;66.63
23574;BME280;11965;53.640;10.050;2023-04-07T00:57:00;101657.34;;;3.50;65.66
23574;BME280;11965;53.640;10.050;2023-04-07T00:59:28;101659.69;;;3.44;64.99
23574;BME280;11965;53.640;10.050;2023-04-07T01:02:02;101653.75;;;3.39;66.44
23574;BME280;11965;53.640;10.050;2023-04-07T01:04:33;101641.19;;;3.36;66.80
23574;BME280;11965;53.640;10.050;2023-04-07T01:07:05;101647.53;;;3.37;67.67
23574;BME280;11965;53.640;10.050;2023-04-07T01:09:44;101643.66;;;3.39;66.00
23574;BME280;11965;53.640;10.050;2023-04-07T01:12:23;101650.16;;;3.27;66.35
23574;BME280;11965;53.640;10.050;2023-04-07T01:14:59;101650.31;;;3.25;69.04
23574;BME280;11965;53.640;10.050;2023-04-07T01:17:44;101647.19;;;3.19;68.13
23574;BME280;11965;53.640;10.050;2023-04-07T01:20:15;101649.41;;;3.36;65.94
23574;BME280;11965;53.640;10.050;2023-04-07T01:22:48;101653.75;;;3.39;66.40
23574;BME280;11965;53.640;10.050;2023-04-07T01:28:43;101647.06;;;3.20;68.09
23574;BME280;11965;53.640;10.050;2023-04-07T01:31:16;101651.41;;;3.12;67.69
23574;BME280;11965;53.640;10.050;2023-04-07T01:33:45;101641.84;;;3.06;69.28
23574;BME280;11965;53.640;10.050;2023-04-07T01:36:15;101655.44;;;3.07;69.85
23574;BME280;11965;53.640;10.050;2023-04-07T01:38:44;101661.16;;;3.04;67.96
23574;BME280;11965;53.640;10.050;2023-04-07T01:41:14;101645.22;;;3.09;67.22
23574;BME280;11965;53.640;10.050;2023-04-07T01:43:44;101646.22;;;3.20;66.36
23574;BME280;11965;53.640;10.050;2023-04-07T01:46:13;101649.19;;;3.17;67.87
23574;BME280;11965;53.640;10.050;2023-04-07T01:48:42;101646.19;;;3.08;67.02
23574;BME280;11965;53.640;10.050;2023-04-07T01:51:10;101646.47;;;3.05;68.18
23574;BME280;11965;53.640;10.050;2023-04-07T01:53:42;101654.81;;;3.04;67.43
23574;BME280;11965;53.640;10.050;2023-04-07T01:56:09;101647.22;;;2.96;68.29
23574;BME280;11965;53.640;10.050;2023-04-07T01:58:36;101647.34;;;2.95;67.48
23574;BME280;11965;53.640;10.050;2023-04-07T02:01:06;101655.91;;;2.90;68.79
23574;BME280;11965;53.640;10.050;2023-04-07T02:03:41;101651.72;;;2.86;68.42
23574;BME280;11965;53.640;10.050;2023-04-07T02:06:14;101654.56;;;2.84;68.16
23574;BME280;11965;53.640;10.050;2023-04-07T02:08:48;101659.53;;;2.79;69.56
23574;BME280;11965;53.640;10.050;2023-04-07T02:11:19;101656.19;;;2.76;70.27
23574;BME280;11965;53.640;10.050;2023-04-07T02:13:47;101654.56;;;2.84;67.87
23574;BME280;11965;53.640;10.050;2023-04-07T02:16:19;101649.84;;;2.86;69.76
23574;BME280;11965;53.640;10.050;2023-04-07T02:18:47;101650.09;;;2.83;69.26
23574;BME280;11965;53.640;10.050;2023-04-07T02:21:16;101653.09;;;2.80;67.88
23574;BME280;11965;53.640;10.050;2023-04-07T02:23:45;101657.03;;;2.76;69.10
23574;BME280;11965;53.640;10.050;2023-04-07T02:26:12;101659.16;;;2.73;70.24
23574;BME280;11965;53.640;10.050;2023-04-07T02:28:39;101658.41;;;2.71;68.49
23574;BME280;11965;53.640;10.050;2023-04-07T02:31:06;101653.34;;;2.66;70.42
23574;BME280;11965;53.640;10.050;2023-04-07T02:33:33;101652.56;;;2.53;70.04
23574;BME280;11965;53.640;10.050;2023-04-07T02:36:00;101662.88;;;2.60;69.33
23574;BME280;11965;53.640;10.050;2023-04-07T02:38:28;101657.91;;;2.65;69.92
23574;BME280;11965;53.640;10.050;2023-04-07T02:40:55;101665.50;;;2.62;68.74
23574;BME280;11965;53.640;10.050;2023-04-07T02:43:23;101664.16;;;2.68;68.93
23574;BME280;11965;53.640;10.050;2023-04-07T02:45:50;101658.31;;;2.61;70.17
23574;BME280;11965;53.640;10.050;2023-04-07T02:48:17;101666.38;;;2.62;69.55
23574;BME280;11965;53.640;10.050;2023-04-07T02:50:44;101662.53;;;2.65;69.33
23574;BME280;11965;53.640;10.050;2023-04-07T02:53:11;101665.41;;;2.75;68.14
23574;BME280;11965;53.640;10.050;2023-04-07T02:55:39;101666.28;;;2.75;67.38
23574;BME280;11965;53.640;10.050;2023-04-07T02:58:06;101669.38;;;2.71;67.24
23574;BME280;11965;53.640;10.050;2023-04-07T03:00:40;101666.88;;;2.68;66.49
23574;BME280;11965;53.640;10.050;2023-04-07T03:03:14;101668.75;;;2.56;68.85
23574;BME280;11965;53.640;10.050;2023-04-07T03:05:50;101668.34;;;2.49;68.79
23574;BME280;11965;53.640;10.050;2023-04-07T03:08:17;101664.84;;;2.47;68.55
23574;BME280;11965;53.640;10.050;2023-04-07T03:10:45;101665.75;;;2.48;69.61
23574;BME280;11965;53.640;10.050;2023-04-07T03:13:13;101672.34;;;2.45;68.32
23574;BME280;11965;53.640;10.050;2023-04-07T03:15:41;101667.72;;;2.34;71.51
23574;BME280;11965;53.640;10.050;2023-04-07T03:18:10;101673.03;;;2.25;70.59
23574;BME280;11965;53.640;10.050;2023-04-07T03:20:37;101682.34;;;2.22;71.37
23574;BME280;11965;53.640;10.050;2023-04-07T03:23:09;101672.44;;;2.32;70.21
23574;BME280;11965;53.640;10.050;2023-04-07T03:25:36;101674.16;;;2.33;69.76
23574;BME280;11965;53.640;10.050;2023-04-07T03:28:05;101667.84;;;2.44;68.11
23574;BME280;11965;53.640;10.050;2023-04-07T03:30:36;101677.41;;;2.38;68.67
23574;BME280;11965;53.640;10.050;2023-04-07T03:33:03;101675.81;;;2.47;68.43
23574;BME280;11965;53.640;10.050;2023-04-07T03:35:30;101683.03;;;2.37;70.00
23574;BME280;11965;53.640;10.050;2023-04-07T03:37:57;101675.69;;;2.37;68.40
23574;BME280;11965;53.640;10.050;2023-04-07T03:40:24;101683.38;;;2.32;68.12
23574;BME280;11965;53.640;10.050;2023-04-07T03:42:52;101686.09;;;2.32;70.11
23574;BME280;11965;53.640;10.050;2023-04-07T03:45:20;101690.44;;;2.24;69.96
23574;BME280;11965;53.640;10.050;2023-04-07T03:47:49;101692.31;;;2.23;70.35
23574;BME280;11965;53.640;10.050;2023-04-07T03:50:17;101687.81;;;2.22;69.24
23574;BME280;11965;53.640;10.050;2023-04-07T03:53:07;101685.44;;;2.17;70.50
23574;BME280;11965;53.640;10.050;2023-04-07T03:55:36;101690.19;;;2.15;70.32
23574;BME280;11965;53.640;10.050;2023-04-07T03:58:11;101698.63;;;2.12;70.02
23574;BME280;11965;53.640;10.050;2023-04-07T04:00:40;101703.09;;;2.13;69.45
23574;BME280;11965;53.640;10.050;2023-04-07T04:03:09;101704.31;;;2.09;71.57
23574;BME280;11965;53.640;10.050;2023-04-07T04:05:43;101697.00;;;2.10;70.97
23574;BME280;11965;53.640;10.050;2023-04-07T04:08:15;101705.69;;;2.15;71.54
23574;BME280;11965;53.640;10.050;2023-04-07T04:10:42;101705.00;;;2.24;68.60
23574;BME280;11965;53.640;10.050;2023-04-07T04:13:10;101709.34;;;2.27;68.54
23574;BME280;11965;53.640;10.050;2023-04-07T04:15:37;101711.31;;;2.25;68.74
23574;BME280;11965;53.640;10.050;2023-04-07T04:18:09;101711.09;;;2.28;69.07
23574;BME280;11965;53.640;10.050;2023-04-07T04:20:36;101716.03;;;2.22;69.67
23574;BME280;11965;53.640;10.050;2023-04-07T04:23:04;101711.06;;;2.16;70.44
23574;BME280;11965;53.640;10.050;2023-04-07T04:25:33;101712.28;;;2.12;69.08
23574;BME280;11965;53.640;10.050;2023-04-07T04:28:04;101715.72;;;2.03;70.46
23574;BME280;11965;53.640;10.050;2023-04-07T04:30:31;101714.28;;;2.10;69.87
23574;BME280;11965;53.640;10.050;2023-04-07T04:33:02;101717.88;;;2.11;70.07
23574;BME280;11965;53.640;10.050;2023-04-07T04:35:43;101722.91;;;2.04;70.35
23574;BME280;11965;53.640;10.050;2023-04-07T04:38:14;101722.72;;;2.07;68.86
23574;BME280;11965;53.640;10.050;2023-04-07T04:40:47;101723.25;;;2.12;69.67
23574;BME280;11965;53.640;10.050;2023-04-07T04:43:17;101730.38;;;2.26;69.25
23574;BME280;11965;53.640;10.050;2023-04-07T04:45:44;101732.44;;;2.22;69.47
23574;BME280;11965;53.640;10.050;2023-04-07T04:48:13;101736.47;;;2.30;68.64
23574;BME280;11965;53.640;10.050;2023-04-07T04:50:42;101739.69;;;2.24;67.59
23574;BME280;11965;53.640;10.050;2023-04-07T04:53:11;101746.84;;;2.13;69.83
23574;BME280;11965;53.640;10.050;2023-04-07T04:55:45;101749.25;;;2.18;69.36
23574;BME280;11965;53.640;10.050;2023-04-07T04:58:19;101746.31;;;2.08;70.04
23574;BME280;11965;53.640;10.050;2023-04-07T05:00:52;101756.50;;;2.06;70.91
23574;BME280;11965;53.640;10.050;2023-04-07T05:03:25;101756.09;;;2.24;69.15
23574;BME280;11965;53.640;10.050;2023-04-07T05:05:54;101756.00;;;2.36;68.40
23574;BME280;11965;53.640;10.050;2023-04-07T05:08:22;101758.72;;;2.36;67.98
23574;BME280;11965;53.640;10.050;2023-04-07T05:10:49;101754.16;;;2.37;67.80
23574;BME280;11965;53.640;10.050;2023-04-07T05:13:20;101757.75;;;2.37;69.58
23574;BME280;11965;53.640;10.050;2023-04-07T05:15:48;101766.56;;;2.30;70.68
23574;BME280;11965;53.640;10.050;2023-04-07T05:18:15;101761.94;;;2.30;68.22
23574;BME280;11965;53.640;10.050;2023-04-07T05:20:43;101769.91;;;2.33;68.74
23574;BME280;11965;53.640;10.050;2023-04-07T05:23:12;101766.72;;;2.39;67.73
23574;BME280;11965;53.640;10.050;2023-04-07T05:25:40;101765.22;;;2.47;68.27
23574;BME280;11965;53.640;10.050;2023-04-07T05:28:07;101769.50;;;2.51;68.34
23574;BME280;11965;53.640;10.050;2023-04-07T05:30:34;101775.47;;;2.56;67.27
23574;BME280;11965;53.640;10.050;2023-04-07T05:33:01;101773.88;;;2.64;66.95
23574;BME280;11965;53.640;10.050;2023-04-07T05:35:39;101779.25;;;2.66;66.94
23574;BME280;11965;53.640;10.050;2023-04-07T05:38:06;101778.59;;;2.62;66.99
23574;BME280;11965;53.640;10.050;2023-04-07T05:40:34;101779.97;;;2.68;66.44
23574;BME280;11965;53.640;10.050;2023-04-07T05:43:02;101787.31;;;2.68;68.77
23574;BME280;11965;53.640;10.050;2023-04-07T05:45:31;101782.47;;;2.71;66.51
23574;BME280;11965;53.640;10.050;2023-04-07T05:47:58;101788.09;;;2.70;67.64
23574;BME280;11965;53.640;10.050;2023-04-07T05:50:35;101790.84;;;2.81;66.26
23574;BME280;11965;53.640;10.050;2023-04-07T05:53:05;101788.84;;;2.83;65.97
23574;BME280;11965;53.640;10.050;2023-04-07T05:55:33;101803.44;;;2.95;67.44
23574;BME280;11965;53.640;10.050;2023-04-07T05:58:01;101796.84;;;3.08;66.78
23574;BME280;11965;53.640;10.050;2023-04-07T06:00:30;101808.56;;;3.10;65.97
23574;BME280;11965;53.640;10.050;2023-04-07T06:03:09;101810.34;;;3.23;63.04
23574;BME280;11965;53.640;10.050;2023-04-07T06:05:48;101805.09;;;3.31;64.57
23574;BME280;11965;53.640;10.050;2023-04-07T06:08:18;101808.56;;;3.33;65.77
23574;BME280;11965;53.640;10.050;2023-04-07T06:10:47;101819.31;;;3.47;63.60
23574;BME280;11965;53.640;10.050;2023-04-07T06:13:13;101814.44;;;3.51;63.63
23574;BME280;11965;53.640;10.050;2023-04-07T06:15:41;101809.81;;;3.51;63.83
23574;BME280;11965;53.640;10.050;2023-04-07T06:18:09;101817.06;;;3.64;64.77
23574;BME280;11965;53.640;10.050;2023-04-07T06:20:36;101817.06;;;3.64;61.98
23574;BME280;11965;53.640;10.050;2023-04-07T06:23:02;101832.84;;;3.83;62.77
23574;BME280;11965;53.640;10.050;2023-04-07T06:25:29;101824.50;;;3.95;61.38
23574;BME280;11965;53.640;10.050;2023-04-07T06:27:58;101828.94;;;4.08;58.28
23574;BME280;11965;53.640;10.050;2023-04-07T06:30:25;101830.56;;;4.10;60.88
23574;BME280;11965;53.640;10.050;2023-04-07T06:32:52;101833.25;;;4.21;60.04
23574;BME280;11965;53.640;10.050;2023-04-07T06:35:22;101840.47;;;4.34;57.60
23574;BME280;11965;53.640;10.050;2023-04-07T06:37:51;101841.81;;;4.39;60.46
23574;BME280;11965;53.640;10.050;2023-04-07T06:40:18;101847.75;;;4.56;57.69
23574;BME280;11965;53.640;10.050;2023-04-07T06:42:45;101840.47;;;4.66;57.58
23574;BME280;11965;53.640;10.050;2023-04-07T06:45:22;101849.41;;;4.79;56.57
23574;BME280;11965;53.640;10.050;2023-04-07T06:47:49;101844.50;;;4.83;58.63
23574;BME280;11965;53.640;10.050;2023-04-07T06:50:16;101840.81;;;4.94;55.82
23574;BME280;11965;53.640;10.050;2023-04-07T06:52:45;101840.75;;;5.05;56.69
23574;BME280;11965;53.640;10.050;2023-04-07T06:55:12;101848.19;;;5.14;55.78
23574;BME280;11965;53.640;10.050;2023-04-07T06:57:39;101850.41;;;5.20;55.16
23574;BME280;11965;53.640;10.050;2023-04-07T07:00:07;101849.91;;;5.36;53.81
23574;BME280;11965;53.640;10.050;2023-04-07T07:02:36;101850.44;;;5.51;52.73
23574;BME280;11965;53.640;10.050;2023-04-07T07:05:03;101853.38;;;5.59;55.07
23574;BME280;11965;53.640;10.050;2023-04-07T07:07:30;101847.72;;;5.61;54.90
23574;BME280;11965;53.640;10.050;2023-04-07T07:09:57;101845.75;;;5.72;54.23
23574;BME280;11965;53.640;10.050;2023-04-07T07:12:24;101855.63;;;5.85;54.20
23574;BME280;11965;53.640;10.050;2023-04-07T07:14:50;101854.50;;;5.87;54.18
23574;BME280;11965;53.640;10.050;2023-04-07T07:17:17;101856.72;;;5.93;54.01
23574;BME280;11965;53.640;10.050;2023-04-07T07:19:45;101846.31;;;5.97;52.05
23574;BME280;11965;53.640;10.050;2023-04-07T07:22:12;101853.13;;;6.03;52.36
23574;BME280;11965;53.640;10.050;2023-04-07T07:24:39;101853.75;;;6.16;52.16
23574;BME280;11965;53.640;10.050;2023-04-07T07:27:06;101850.75;;;6.29;51.50
23574;BME280;11965;53.640;10.050;2023-04-07T07:29:33;101851.31;;;6.32;51.12
23574;BME280;11965;53.640;10.050;2023-04-07T07:32:00;101850.59;;;6.40;51.95
23574;BME280;11965;53.640;10.050;2023-04-07T07:34:26;101857.72;;;6.62;48.61
23574;BME280;11965;53.640;10.050;2023-04-07T07:36:55;101855.69;;;6.64;49.32
23574;BME280;11965;53.640;10.050;2023-04-07T07:39:21;101863.94;;;6.74;51.04
23574;BME280;11965;53.640;10.050;2023-04-07T07:41:48;101865.56;;;6.86;49.62
23574;BME280;11965;53.640;10.050;2023-04-07T07:44:16;101868.75;;;6.91;48.18
23574;BME280;11965;53.640;10.050;2023-04-07T07:46:44;101869.31;;;7.04;49.07
23574;BME280;11965;53.640;10.050;2023-04-07T07:49:11;101873.22;;;7.12;49.79
23574;BME280;11965;53.640;10.050;2023-04-07T07:51:38;101863.78;;;7.24;48.01
23574;BME280;11965;53.640;10.050;2023-04-07T07:54:06;101874.06;;;7.32;49.21
23574;BME280;11965;53.640;10.050;2023-04-07T07:56:34;101875.66;;;7.34;48.04
23574;BME280;11965;53.640;10.050;2023-04-07T07:59:01;101879.59;;;7.32;48.27
23574;BME280;11965;53.640;10.050;2023-04-07T08:01:28;101876.22;;;7.47;49.06
23574;BME280;11965;53.640;10.050;2023-04-07T08:03:54;101881.84;;;7.56;48.05
23574;BME280;11965;53.640;10.050;2023-04-07T08:06:21;101882.38;;;7.69;47.74
23574;BME280;11965;53.640;10.050;2023-04-07T08:08:48;101882.94;;;7.72;46.23
23574;BME280;11965;53.640;10.050;2023-04-07T08:11:17;101873.88;;;7.90;45.64
23574;BME280;11965;53.640;10.050;2023-04-07T08:13:44;101882.72;;;7.93;46.32
23574;BME280;11965;53.640;10.050;2023-04-07T08:16:10;101885.72;;;8.00;45.81
23574;BME280;11965;53.640;10.050;2023-04-07T08:18:37;101883.78;;;8.10;45.40
23574;BME280;11965;53.640;10.050;2023-04-07T08:21:05;101881.34;;;8.07;44.66
23574;BME280;11965;53.640;10.050;2023-04-07T08:23:32;101893.78;;;8.21;46.56
23574;BME280;11965;53.640;10.050;2023-04-07T08:25:58;101887.47;;;8.29;43.76
23574;BME280;11965;53.640;10.050;2023-04-07T08:28:27;101883.00;;;8.28;44.72
23574;BME280;11965;53.640;10.050;2023-04-07T08:30:53;101881.53;;;8.51;44.01
23574;BME280;11965;53.640;10.050;2023-04-07T08:33:21;101894.44;;;8.78;45.31
23574;BME280;11965;53.640;10.050;2023-04-07T08:35:48;101892.78;;;9.03;45.13
23574;BME280;11965;53.640;10.050;2023-04-07T08:38:14;101895.78;;;9.10;43.84
23574;BME280;11965;53.640;10.050;2023-04-07T08:40:42;101894.97;;;9.18;40.65
23574;BME280;11965;53.640;10.050;2023-04-07T08:43:09;101895.38;;;9.05;41.38
23574;BME280;11965;53.640;10.050;2023-04-07T08:45:39;101894.63;;;8.95;42.80
23574;BME280;11965;53.640;10.050;2023-04-07T08:48:15;101887.22;;;9.21;40.39
23574;BME280;11965;53.640;10.050;2023-04-07T08:50:44;101897.50;;;9.29;42.25
23574;BME280;11965;53.640;10.050;2023-04-07T08:53:12;101888.28;;;9.46;39.48
23574;BME280;11965;53.640;10.050;2023-04-07T08:55:41;101890.75;;;9.49;39.88
23574;BME280;11965;53.640;10.050;2023-04-07T08:58:09;101900.75;;;9.50;41.18
23574;BME280;11965;53.640;10.050;2023-04-07T09:00:40;101893.19;;;9.52;40.45
23574;BME280;11965;53.640;10.050;2023-04-07T09:03:10;101898.28;;;9.65;40.25
23574;BME280;11965;53.640;10.050;2023-04-07T09:05:38;101895.22;;;9.77;40.28
23574;BME280;11965;53.640;10.050;2023-04-07T09:08:05;101896.97;;;9.78;40.55
23574;BME280;11965;53.640;10.050;2023-04-07T09:10:32;101896.72;;;9.89;40.67
23574;BME280;11965;53.640;10.050;2023-04-07T09:12:59;101900.16;;;9.91;39.49
23574;BME280;11965;53.640;10.050;2023-04-07T09:15:29;101895.66;;;9.90;39.56
23574;BME280;11965;53.640;10.050;2023-04-07T09:17:58;101899.50;;;9.97;40.04
23574;BME280;11965;53.640;10.050;2023-04-07T09:20:25;101893.47;;;10.02;40.06
23574;BME280;11965;53.640;10.050;2023-04-07T09:22:52;101883.63;;;10.07;39.46
23574;BME280;11965;53.640;10.050;2023-04-07T09:25:21;101889.81;;;10.27;39.57
23574;BME280;11965;53.640;10.050;2023-04-07T09:27:59;101887.63;;;10.47;40.35
23574;BME280;11965;53.640;10.050;2023-04-07T09:30:28;101882.78;;;10.57;38.84
23574;BME280;11965;53.640;10.050;2023-04-07T09:32:58;101880.75;;;10.68;39.81
23574;BME280;11965;53.640;10.050;2023-04-07T09:35:26;101878.81;;;10.60;38.88
23574;BME280;11965;53.640;10.050;2023-04-07T09:38:01;101884.34;;;10.52;38.30
23574;BME280;11965;53.640;10.050;2023-04-07T09:40:29;101873.13;;;10.61;34.91
23574;BME280;11965;53.640;10.050;2023-04-07T09:42:57;101888.41;;;10.31;36.45
23574;BME280;11965;53.640;10.050;2023-04-07T09:45:24;101878.28;;;10.14;36.45
23574;BME280;11965;53.640;10.050;2023-04-07T09:47:52;101880.31;;;10.04;38.01
23574;BME280;11965;53.640;10.050;2023-04-07T09:50:31;101884.25;;;9.93;37.27
23574;BME280;11965;53.640;10.050;2023-04-07T09:53:00;101879.84;;;10.08;39.43
23574;BME280;11965;53.640;10.050;2023-04-07T09:55:29;101885.13;;;10.28;39.66
23574;BME280;11965;53.640;10.050;2023-04-07T09:57:56;101876.53;;;10.47;36.72
23574;BME280;11965;53.640;10.050;2023-04-07T10:00:24;101875.53;;;10.56;39.03
23574;BME280;11965;53.640;10.050;2023-04-07T10:02:51;101876.63;;;10.88;37.13
23574;BME280;11965;53.640;10.050;2023-04-07T10:05:19;101873.16;;;11.02;36.36
23574;BME280;11965;53.640;10.050;2023-04-07T10:07:48;101873.66;;;10.90;35.78
23574;BME280;11965;53.640;10.050;2023-04-07T10:10:15;101873.16;;;10.86;34.37
23574;BME280;11965;53.640;10.050;2023-04-07T10:12:43;101881.81;;;10.83;36.58
23574;BME280;11965;53.640;10.050;2023-04-07T10:15:12;101875.44;;;11.07;36.35
23574;BME280;11965;53.640;10.050;2023-04-07T10:17:45;101871.75;;;10.98;35.10
23574;BME280;11965;53.640;10.050;2023-04-07T10:20:16;101876.94;;;10.85;34.38
23574;BME280;11965;53.640;10.050;2023-04-07T10:22:49;101876.06;;;10.76;37.20
23574;BME280;11965;53.640;10.050;2023-04-07T10:25:19;101868.09;;;10.73;36.66
23574;BME280;11965;53.640;10.050;2023-04-07T10:27:50;101884.38;;;10.68;35.57
23574;BME280;11965;53.640;10.050;2023-04-07T10:30:22;101873.97;;;10.62;36.35
23574;BME280;11965;53.640;10.050;2023-04-07T10:32:52;101880.75;;;10.68;36.88
23574;BME280;11965;53.640;10.050;2023-04-07T10:35:20;101879.34;;;10.72;37.41
23574;BME280;11965;53.640;10.050;2023-04-07T10:38:11;101888.03;;;10.77;37.67
23574;BME280;11965;53.640;10.050;2023-04-07T10:40:40;101894.97;;;10.81;38.07
23574;BME280;11965;53.640;10.050;2023-04-07T10:43:08;101881.44;;;10.70;36.19
23574;BME280;11965;53.640;10.050;2023-04-07T10:45:53;101882.78;;;10.49;37.96
23574;BME280;11965;53.640;10.050;2023-04-07T10:48:21;101891.41;;;10.38;39.26
23574;BME280;11965;53.640;10.050;2023-04-07T10:51:11;101882.34;;;10.28;40.46
23574;BME280;11965;53.640;10.050;2023-04-07T10:57:10;101884.38;;;10.26;39.53
23574;BME280;11965;53.640;10.050;2023-04-07T10:59:40;101897.31;;;10.43;37.85
23574;BME280;11965;53.640;10.050;2023-04-07T11:02:33;101889.13;;;10.33;38.49
23574;BME280;11965;53.640;10.050;2023-04-07T11:05:01;101896.59;;;10.41;38.63
23574;BME280;11965;53.640;10.050;2023-04-07T11:07:46;101894.69;;;10.33;38.55
23574;BME280;11965;53.640;10.050;2023-04-07T11:10:14;101894.69;;;10.42;40.42
23574;BME280;11965;53.640;10.050;2023-04-07T11:13:00;101900.13;;;10.59;39.02
23574;BME280;11965;53.640;10.050;2023-04-07T11:15:27;101880.03;;;10.66;35.59
23574;BME280;11965;53.640;10.050;2023-04-07T11:18:12;101898.53;;;10.49;35.58
23574;BME280;11965;53.640;10.050;2023-04-07T11:20:44;101901.28;;;10.41;35.79
23574;BME280;11965;53.640;10.050;2023-04-07T11:23:13;101894.78;;;10.24;34.95
23574;BME280;11965;53.640;10.050;2023-04-07T11:25:42;101894.56;;;10.17;37.58
23574;BME280;11965;53.640;10.050;2023-04-07T11:28:12;101893.44;;;10.28;34.63
23574;BME280;11965;53.640;10.050;2023-04-07T11:30:45;101892.63;;;10.09;36.23
23574;BME280;11965;53.640;10.050;2023-04-07T11:33:16;101889.31;;;10.32;37.37
23574;BME280;11965;53.640;10.050;2023-04-07T11:35:51;101891.38;;;10.30;37.94
23574;BME280;11965;53.640;10.050;2023-04-07T11:38:18;101896.13;;;10.46;38.30
23574;BME280;11965;53.640;10.050;2023-04-07T11:40:45;101889.38;;;10.56;39.57
23574;BME280;11965;53.640;10.050;2023-04-07T11:43:22;101888.00;;;10.60;38.46
23574;BME280;11965;53.640;10.050;2023-04-07T11:46:06;101887.47;;;10.57;38.75
23574;BME280;11965;53.640;10.050;2023-04-07T11:48:34;101897.94;;;10.29;37.82
23574;BME280;11965;53.640;10.050;2023-04-07T11:51:01;101897.13;;;10.02;39.17
23574;BME280;11965;53.640;10.050;2023-04-07T11:53:30;101902.69;;;10.10;37.68
23574;BME280;11965;53.640;10.050;2023-04-07T11:56:02;101907.59;;;9.90;38.71
23574;BME280;11965;53.640;10.050;2023-04-07T11:58:31;101898.44;;;9.90;38.34
23574;BME280;11965;53.640;10.050;2023-04-07T12:00:59;101904.06;;;10.06;39.43
23574;BME280;11965;53.640;10.050;2023-04-07T12:03:29;101909.94;;;10.03;39.84
23574;BME280;11965;53.640;10.050;2023-04-07T12:05:56;101911.66;;;10.04;38.98
23574;BME280;11965;53.640;10.050;2023-04-07T12:08:36;101903.84;;;10.00;40.92
23574;BME280;11965;53.640;10.050;2023-04-07T12:11:04;101903.00;;;10.07;39.54
23574;BME280;11965;53.640;10.050;2023-04-07T12:13:34;101903.28;;;9.96;39.58
23574;BME280;11965;53.640;10.050;2023-04-07T12:16:01;101894.31;;;9.94;41.43
23574;BME280;11965;53.640;10.050;2023-04-07T12:18:28;101909.97;;;10.11;40.24
23574;BME280;11965;53.640;10.050;2023-04-07T12:20:55;101893.66;;;9.74;42.71
23574;BME280;11965;53.640;10.050;2023-04-07T12:23:24;101904.41;;;9.77;43.37
23574;BME280;11965;53.640;10.050;2023-04-07T12:25:51;101903.19;;;10.06;42.71
23574;BME280;11965;53.640;10.050;2023-04-07T12:28:18;101911.38;;;10.15;42.19
23574;BME280;11965;53.640;10.050;2023-04-07T12:30:46;101903.72;;;10.09;43.16
23574;BME280;11965;53.640;10.050;2023-04-07T12:33:13;101921.03;;;10.11;44.38
23574;BME280;11965;53.640;10.050;2023-04-07T12:35:40;101917.56;;;10.09;46.16
23574;BME280;11965;53.640;10.050;2023-04-07T12:38:07;101918.22;;;10.29;42.88
23574;BME280;11965;53.640;10.050;2023-04-07T12:40:34;101910.72;;;10.22;43.77
23574;BME280;11965;53.640;10.050;2023-04-07T12:43:02;101922.63;;;9.88;44.74
23574;BME280;11965;53.640;10.050;2023-04-07T12:45:30;101918.84;;;9.89;44.47
23574;BME280;11965;53.640;10.050;2023-04-07T12:47:59;101921.66;;;9.97;45.50
23574;BME280;11965;53.640;10.050;2023-04-07T12:50:26;101919.41;;;10.27;44.62
23574;BME280;11965;53.640;10.050;2023-04-07T12:52:54;101915.47;;;10.29;44.55
23574;BME280;11965;53.640;10.050;2023-04-07T12:55:21;101920.72;;;10.14;45.20
23574;BME280;11965;53.640;10.050;2023-04-07T12:57:48;101918.19;;;9.95;45.07
23574;BME280;11965;53.640;10.050;2023-04-07T13:00:15;101913.09;;;10.16;46.91
23574;BME280;11965;53.640;10.050;2023-04-07T13:02:42;101907.56;;;10.16;45.33
23574;BME280;11965;53.640;10.050;2023-04-07T13:05:10;101910.22;;;10.26;44.78